KBPI/BPI METAR and TAF weather

Enter ICAO airport designator
Station Type Date Time Source
KBPI METAR 2019/05/25 08:53 UTC NOAA

KBPI 250853Z AUTO 02004KT 10SM CLR 00/M02 A3003 RMK AO2 SLP129 T00001017 51000


Station Type Date Time Source
KBPI Decoded METAR 2019/05/25 08:53 UTC NOAA

BIG PINEY-MARBLETON AIRPORT, WY, United States (KBPI) 42-35N 110-06W 2117M
May 25, 2019 - 04:53 AM EDT / 2019.05.25 0853 UTC
Wind: from the NNE (020 degrees) at 5 MPH (4 KT):0
Visibility: 10 mile(s):0
Sky conditions: clear
Temperature: 32.0 F (0.0 C)
Windchill: 26 F (-3 C):1
Dew Point: 28.9 F (-1.7 C)
Relative Humidity: 88%
Pressure (altimeter): 30.03 in. Hg (1016 hPa)
Pressure tendency: 0.00 inches (0.0 hPa) higher than three hours ago
ob: KBPI 250853Z AUTO 02004KT 10SM CLR 00/M02 A3003 RMK AO2 SLP129 T00001017 51000
cycle: 9

Station Type Date Time Source
KBPI TAF 2019/05/25 06:22 UTC NOAA

TAF KBPI 250520Z 2506/2606 35004KT P6SM SCT035 BKN060
FM251600 16008KT P6SM FEW050 SCT080
FM252000 20011G16KT P6SM VCTS SCT040 BKN060CB
FM260100 20005KT P6SM BKN060

Example: see airport list